Time;durP1;ratioP1;P1;durP2;ratioP2;P2;SDS_P1;SDS_P2;PMS_P1;PMS_P2;Temp;Humidity;BMP_temperature;BMP_pressure;BME280_temperature;BME280_humidity;BME280_pressure;Samples;Min_cycle;Max_cycle;Signal;HPM_P1;HPM_P2
2022/10/26 00:02:27;;;;;;;21.30;10.00;;;;;;;8.45;85.34;100613.56;51943;1312;1016443;-81
2022/10/26 00:04:58;;;;;;;22.90;9.80;;;;;;;8.41;85.38;100613.30;51921;1309;1018303;-81
2022/10/26 00:07:30;;;;;;;22.70;10.30;;;;;;;8.39;85.56;100613.13;51596;1287;1016168;-81
2022/10/26 00:10:03;;;;;;;22.30;8.60;;;;;;;8.39;85.63;100617.82;51619;1294;1017731;-81
2022/10/26 00:12:35;;;;;;;22.40;9.50;;;;;;;8.39;85.67;100615.68;51623;1294;1016434;-82
2022/10/26 00:15:08;;;;;;;23.60;9.00;;;;;;;8.37;85.50;100615.98;51915;1310;1016931;-81
2022/10/26 00:17:39;;;;;;;20.90;9.70;;;;;;;8.35;85.69;100618.39;51655;1287;1015921;-82
2022/10/26 00:20:11;;;;;;;24.10;9.00;;;;;;;8.33;85.62;100617.91;51844;1312;1016408;-82
2022/10/26 00:22:46;;;;;;;21.80;9.50;;;;;;;8.31;85.35;100619.02;51646;1286;1016182;-80
2022/10/26 00:25:18;;;;;;;21.70;9.10;;;;;;;8.27;85.47;100623.92;51687;1294;1016528;-81
2022/10/26 00:27:49;;;;;;;19.90;9.70;;;;;;;8.23;85.48;100625.73;51829;1312;1017154;-81
2022/10/26 00:30:20;;;;;;;21.20;10.00;;;;;;;8.17;85.44;100634.41;51645;1287;1016353;-81
2022/10/26 00:32:53;;;;;;;21.50;9.50;;;;;;;8.12;85.49;100636.54;51868;1294;1016321;-81
2022/10/26 00:35:24;;;;;;;20.60;9.30;;;;;;;8.07;85.57;100636.63;51993;1302;1016388;-81
2022/10/26 00:37:58;;;;;;;22.20;10.20;;;;;;;8.03;85.60;100638.52;51566;1293;1016293;-82
2022/10/26 00:40:31;;;;;;;22.90;10.00;;;;;;;8.01;85.61;100639.54;51891;1310;1015917;-82
2022/10/26 00:43:02;;;;;;;19.50;8.50;;;;;;;7.99;85.65;100638.97;51719;1294;1016526;-81
2022/10/26 00:45:34;;;;;;;20.30;9.60;;;;;;;7.97;85.66;100637.08;51952;1288;1018079;-81
2022/10/26 00:48:10;;;;;;;21.80;9.60;;;;;;;7.94;85.46;100633.62;51684;1286;1016553;-81
2022/10/26 00:50:44;;;;;;;21.50;8.80;;;;;;;7.91;85.59;100637.04;51835;1309;1017905;-81
2022/10/26 00:53:18;;;;;;;22.20;9.20;;;;;;;7.88;85.53;100632.20;51864;1294;1017997;-81
2022/10/26 00:55:52;;;;;;;20.40;7.60;;;;;;;7.86;85.41;100633.89;51607;1312;1016364;-81
2022/10/26 00:58:25;;;;;;;23.00;10.30;;;;;;;7.82;85.65;100637.45;51856;1311;1016025;-81
2022/10/26 01:00:58;;;;;;;22.00;9.00;;;;;;;7.79;85.75;100637.72;51930;1291;1016888;-81
2022/10/26 01:03:30;;;;;;;19.20;8.20;;;;;;;7.75;85.69;100636.66;51664;1315;1015661;-81
2022/10/26 01:06:05;;;;;;;19.50;8.70;;;;;;;7.73;85.88;100632.05;51819;1308;1017445;-81
2022/10/26 01:08:37;;;;;;;20.00;8.50;;;;;;;7.72;85.74;100629.84;51982;1312;1018830;-81
2022/10/26 01:11:08;;;;;;;18.60;7.90;;;;;;;7.70;85.68;100625.27;51875;1303;1016866;-81
2022/10/26 01:13:40;;;;;;;18.50;8.00;;;;;;;7.67;85.71;100626.38;51543;1312;1016450;-82
2022/10/26 01:16:42;;;;;;;17.40;7.00;;;;;;;7.64;85.69;100627.37;51610;1294;1016411;-81
2022/10/26 01:19:50;;;;;;;16.90;7.70;;;;;;;7.59;85.77;100626.96;51795;1310;1015879;-81
2022/10/26 01:22:26;;;;;;;17.80;8.20;;;;;;;7.58;85.63;100629.96;51584;1312;1016455;-81
2022/10/26 01:25:17;;;;;;;16.50;7.40;;;;;;;7.55;85.70;100629.73;51631;1315;1016591;-81
2022/10/26 01:27:51;;;;;;;20.40;8.20;;;;;;;7.53;85.67;100630.77;51667;1287;1015871;-81
2022/10/26 01:30:39;;;;;;;22.00;7.70;;;;;;;7.51;85.76;100635.02;51596;1286;1017222;-82
2022/10/26 01:33:26;;;;;;;17.60;7.50;;;;;;;7.48;85.80;100633.05;51571;1294;1016245;-82
2022/10/26 01:36:06;;;;;;;19.30;8.10;;;;;;;7.46;85.77;100633.63;51936;1315;1016588;-82
2022/10/26 01:38:54;;;;;;;19.40;7.90;;;;;;;7.43;85.82;100632.21;51912;1315;1016531;-81
2022/10/26 01:41:33;;;;;;;20.10;8.30;;;;;;;7.40;85.98;100628.84;51883;1315;1017096;-81
2022/10/26 01:44:08;;;;;;;28.60;9.10;;;;;;;7.37;85.95;100624.96;51560;1296;1016521;-81
2022/10/26 01:46:42;;;;;;;19.10;7.80;;;;;;;7.34;85.85;100623.39;51953;1312;1015674;-80
2022/10/26 01:49:16;;;;;;;20.10;7.60;;;;;;;7.31;85.97;100621.25;51871;1299;1016488;-80
2022/10/26 01:51:49;;;;;;;18.50;7.50;;;;;;;7.28;85.85;100619.29;51765;1292;1017776;-80
2022/10/26 01:54:20;;;;;;;19.90;8.20;;;;;;;7.26;85.90;100615.25;51690;1293;1016434;-82
2022/10/26 01:56:55;;;;;;;23.40;7.50;;;;;;;7.22;85.99;100614.44;51930;1292;1016733;-81
2022/10/26 01:59:46;;;;;;;20.50;7.30;;;;;;;7.18;86.02;100614.80;51919;1302;1015926;-81
2022/10/26 02:02:57;;;;;;;19.40;7.50;;;;;;;7.14;85.95;100614.85;51689;1292;1016496;-81
2022/10/26 02:05:53;;;;;;;21.30;7.10;;;;;;;7.09;86.03;100617.72;51608;1293;1015983;-81
2022/10/26 02:08:45;;;;;;;18.20;8.00;;;;;;;7.02;85.97;100612.80;51924;1299;1016250;-81
2022/10/26 02:11:28;;;;;;;20.70;8.00;;;;;;;6.97;85.99;100613.20;51890;1291;1018497;-81
2022/10/26 02:14:08;;;;;;;21.00;8.60;;;;;;;6.93;86.29;100611.34;51646;1283;1016089;-81
2022/10/26 02:16:48;;;;;;;22.00;7.70;;;;;;;6.93;86.69;100607.61;51870;1296;1015834;-81
2022/10/26 02:19:32;;;;;;;21.10;7.90;;;;;;;6.88;86.19;100614.12;51654;1310;1016421;-81
2022/10/26 02:22:09;;;;;;;20.40;7.80;;;;;;;6.81;86.19;100609.90;51880;1295;1016503;-81
2022/10/26 02:24:42;;;;;;;19.40;8.00;;;;;;;6.75;86.10;100606.20;51881;1310;1016391;-81
2022/10/26 02:27:19;;;;;;;21.00;6.70;;;;;;;6.71;86.01;100604.58;51614;1293;1015865;-81
2022/10/26 02:29:53;;;;;;;20.30;8.10;;;;;;;6.67;85.97;100604.95;51647;1293;1016014;-82
2022/10/26 02:32:28;;;;;;;18.50;5.40;;;;;;;6.63;86.14;100607.69;51672;1293;1015839;-82
2022/10/26 02:35:02;;;;;;;18.70;6.10;;;;;;;6.60;86.21;100602.39;51645;1310;1018208;-81
2022/10/26 02:37:36;;;;;;;14.30;5.90;;;;;;;6.58;86.20;100605.61;51852;1293;1016267;-81
2022/10/26 02:40:13;;;;;;;16.70;5.90;;;;;;;6.55;86.11;100607.20;51947;1300;1016361;-81
2022/10/26 02:42:46;;;;;;;17.20;5.70;;;;;;;6.52;86.23;100613.71;51908;1286;1016393;-82
2022/10/26 02:45:23;;;;;;;16.30;5.10;;;;;;;6.50;86.14;100614.09;51648;1303;1016348;-82
2022/10/26 02:47:56;;;;;;;19.80;6.30;;;;;;;6.48;86.21;100612.66;51643;1310;1015935;-82
2022/10/26 02:50:33;;;;;;;15.30;5.90;;;;;;;6.47;86.07;100613.41;51707;1310;1016159;-81
2022/10/26 02:53:17;;;;;;;16.30;6.60;;;;;;;6.45;86.09;100618.77;51652;1310;1016237;-81
2022/10/26 02:55:52;;;;;;;19.50;6.80;;;;;;;6.43;86.15;100614.63;51805;1299;1016011;-81
2022/10/26 02:58:27;;;;;;;17.30;7.00;;;;;;;6.41;85.98;100619.06;51671;1311;1015972;-81
2022/10/26 03:01:00;;;;;;;18.20;6.70;;;;;;;6.38;86.05;100616.91;51816;1292;1016485;-81
2022/10/26 03:03:33;;;;;;;25.40;6.20;;;;;;;6.36;86.13;100623.06;52001;1310;1015784;-82
2022/10/26 03:06:05;;;;;;;16.50;5.50;;;;;;;6.35;86.14;100622.81;51888;1294;1016652;-82
2022/10/26 03:08:36;;;;;;;20.20;6.60;;;;;;;6.34;86.17;100624.42;51900;1293;1016580;-81
2022/10/26 03:11:07;;;;;;;22.60;6.90;;;;;;;6.33;86.30;100627.77;51591;1284;1016474;-82
2022/10/26 03:13:39;;;;;;;22.40;7.10;;;;;;;6.31;86.21;100628.55;51863;1310;1016214;-81
2022/10/26 03:16:11;;;;;;;20.60;7.70;;;;;;;6.29;86.25;100628.92;51667;1293;1016226;-82
2022/10/26 03:18:43;;;;;;;21.40;8.10;;;;;;;6.27;86.42;100626.98;51643;1293;1016049;-81
2022/10/26 03:21:15;;;;;;;21.40;8.30;;;;;;;6.25;86.40;100628.70;51860;1293;1016957;-82
2022/10/26 03:23:46;;;;;;;23.40;7.70;;;;;;;6.24;86.60;100632.54;51757;1287;1016498;-81
2022/10/26 03:26:17;;;;;;;20.00;7.50;;;;;;;6.22;86.51;100633.89;51645;1310;1016113;-81
2022/10/26 03:28:49;;;;;;;20.60;7.60;;;;;;;6.19;86.52;100641.25;51831;1294;1016130;-81
2022/10/26 03:31:20;;;;;;;22.10;7.50;;;;;;;6.16;86.47;100642.70;51619;1294;1016997;-82
2022/10/26 03:33:51;;;;;;;23.00;7.90;;;;;;;6.13;86.44;100642.29;51839;1308;1016664;-81
2022/10/26 03:36:23;;;;;;;17.30;7.40;;;;;;;6.11;86.48;100644.17;51853;1294;1015878;-82
2022/10/26 03:38:55;;;;;;;21.30;7.00;;;;;;;6.11;86.48;100648.94;51621;1293;1016076;-82
2022/10/26 03:41:26;;;;;;;19.30;6.60;;;;;;;6.09;86.38;100653.17;51611;1294;1016542;-81
2022/10/26 03:43:57;;;;;;;20.70;6.80;;;;;;;6.07;86.52;100648.55;51875;1310;1016383;-81
2022/10/26 03:46:28;;;;;;;19.90;8.00;;;;;;;6.05;86.42;100650.90;51681;1290;1015918;-81
2022/10/26 03:48:59;;;;;;;19.50;6.90;;;;;;;6.03;86.46;100654.14;51775;1310;1015826;-81
2022/10/26 03:51:32;;;;;;;19.40;6.30;;;;;;;6.01;86.54;100651.91;51862;1309;1016511;-81
2022/10/26 03:54:03;;;;;;;19.80;7.70;;;;;;;6.00;86.47;100647.56;51828;1310;1016198;-81
2022/10/26 03:56:34;;;;;;;22.70;7.30;;;;;;;5.99;86.61;100649.73;51657;1292;1016300;-81
2022/10/26 03:59:06;;;;;;;18.90;6.80;;;;;;;5.97;86.56;100651.94;51858;1292;1016060;-81
2022/10/26 04:01:37;;;;;;;24.50;7.00;;;;;;;5.95;86.73;100648.75;51608;1295;1015382;-82
2022/10/26 04:04:09;;;;;;;20.40;7.10;;;;;;;5.92;86.89;100651.10;51937;1294;1016217;-81
2022/10/26 04:06:40;;;;;;;21.20;7.50;;;;;;;5.91;86.77;100648.61;51812;1302;1016034;-81
2022/10/26 04:09:11;;;;;;;20.40;7.70;;;;;;;5.89;86.80;100646.77;51704;1293;1016364;-80
2022/10/26 04:11:43;;;;;;;16.60;6.60;;;;;;;5.88;86.70;100647.19;51942;1294;1016408;-81
2022/10/26 04:14:15;;;;;;;18.70;7.20;;;;;;;5.86;86.70;100641.09;51888;1294;1016814;-80
2022/10/26 04:16:47;;;;;;;22.80;7.40;;;;;;;5.85;86.75;100644.11;51921;1310;1016280;-80
2022/10/26 04:19:20;;;;;;;20.20;7.50;;;;;;;5.85;86.82;100643.81;51650;1284;1016353;-80
2022/10/26 04:21:53;;;;;;;26.90;9.40;;;;;;;5.84;86.79;100646.26;51634;1286;1016376;-80
2022/10/26 04:24:25;;;;;;;28.30;8.40;;;;;;;5.83;86.98;100650.64;51696;1310;1015947;-79
2022/10/26 04:26:57;;;;;;;24.60;8.90;;;;;;;5.81;86.96;100651.55;51787;1302;1018236;-79
2022/10/26 04:29:28;;;;;;;23.30;9.20;;;;;;;5.80;87.06;100652.05;51627;1310;1017881;-79
2022/10/26 04:31:59;;;;;;;29.90;11.70;;;;;;;5.79;87.02;100654.61;51667;1287;1016058;-79
2022/10/26 04:34:31;;;;;;;32.60;12.70;;;;;;;5.77;86.97;100658.92;51722;1294;1016353;-79
2022/10/26 04:37:02;;;;;;;28.90;11.00;;;;;;;5.76;87.15;100657.86;51796;1299;1016138;-79
2022/10/26 04:39:34;;;;;;;29.70;9.60;;;;;;;5.75;87.17;100654.08;51873;1310;1016970;-79
2022/10/26 04:42:06;;;;;;;26.80;9.10;;;;;;;5.74;87.05;100648.02;51877;1287;1016278;-79
2022/10/26 04:44:37;;;;;;;22.80;8.60;;;;;;;5.71;86.99;100648.40;51933;1294;1015941;-79
2022/10/26 04:47:08;;;;;;;19.20;6.30;;;;;;;5.71;87.06;100644.36;51696;1296;1016311;-80
2022/10/26 04:49:40;;;;;;;27.90;8.90;;;;;;;5.70;87.07;100645.27;51949;1308;1015945;-80
2022/10/26 04:52:12;;;;;;;26.00;7.30;;;;;;;5.68;86.98;100652.27;51993;1294;1016067;-79
2022/10/26 04:54:44;;;;;;;23.20;7.10;;;;;;;5.66;87.04;100654.30;51878;1294;1015828;-79
2022/10/26 04:57:16;;;;;;;20.70;7.20;;;;;;;5.64;86.95;100654.66;51781;1293;1016066;-79
2022/10/26 04:59:48;;;;;;;23.30;7.70;;;;;;;5.62;87.02;100659.55;51709;1310;1016256;-79
2022/10/26 05:02:21;;;;;;;19.80;6.90;;;;;;;5.60;87.06;100655.43;51672;1310;1016027;-80
2022/10/26 05:04:54;;;;;;;21.00;7.40;;;;;;;5.58;87.15;100656.83;51737;1312;1015993;-79
2022/10/26 05:07:25;;;;;;;24.10;7.30;;;;;;;5.56;87.26;100657.59;51604;1309;1015800;-79
2022/10/26 05:09:57;;;;;;;20.30;6.80;;;;;;;5.56;87.39;100660.05;51786;1307;1016393;-78
2022/10/26 05:12:29;;;;;;;19.90;6.60;;;;;;;5.55;87.21;100670.02;51774;1308;1018168;-78
2022/10/26 05:15:00;;;;;;;20.20;7.30;;;;;;;5.53;87.24;100669.23;51640;1310;1016076;-79
2022/10/26 05:17:31;;;;;;;28.80;8.40;;;;;;;5.51;87.20;100672.68;51965;1309;1016234;-79
2022/10/26 05:20:04;;;;;;;23.80;8.30;;;;;;;5.49;87.42;100667.89;51869;1298;1016514;-79
2022/10/26 05:22:36;;;;;;;30.40;8.70;;;;;;;5.49;87.33;100667.89;51699;1283;1016294;-82
2022/10/26 05:25:09;;;;;;;23.00;7.40;;;;;;;5.48;87.29;100670.29;51684;1309;1016203;-82
2022/10/26 05:27:40;;;;;;;28.30;7.50;;;;;;;5.47;87.46;100673.41;51704;1302;1017657;-82
2022/10/26 05:30:13;;;;;;;18.90;5.90;;;;;;;5.45;87.47;100674.88;51768;1309;1016383;-82
2022/10/26 05:32:45;;;;;;;17.10;6.50;;;;;;;5.44;87.47;100680.13;51925;1309;1016011;-82
2022/10/26 05:35:16;;;;;;;20.20;7.20;;;;;;;5.43;87.38;100681.18;51785;1306;1016046;-82
2022/10/26 05:37:48;;;;;;;20.00;5.90;;;;;;;5.41;87.55;100683.92;51897;1310;1016297;-82
2022/10/26 05:40:21;;;;;;;16.40;6.10;;;;;;;5.41;87.57;100686.92;51941;1294;1016460;-81
2022/10/26 05:42:53;;;;;;;21.50;7.10;;;;;;;5.41;87.72;100692.31;52108;1310;1016633;-81
2022/10/26 05:45:24;;;;;;;21.70;6.10;;;;;;;5.41;87.76;100692.31;52232;1310;1015786;-81
2022/10/26 05:47:56;;;;;;;21.10;6.70;;;;;;;5.42;87.81;100690.14;52105;1310;1016124;-81
2022/10/26 05:50:29;;;;;;;18.60;6.10;;;;;;;5.42;87.74;100691.55;52023;1311;1016443;-81
2022/10/26 05:53:00;;;;;;;22.80;7.50;;;;;;;5.41;87.80;100691.73;52123;1310;1016462;-81
2022/10/26 05:55:32;;;;;;;21.70;7.10;;;;;;;5.40;87.86;100695.01;52035;1310;1016207;-81
2022/10/26 05:58:09;;;;;;;17.10;6.00;;;;;;;5.39;87.80;100701.06;51976;1311;1016530;-81
2022/10/26 06:00:50;;;;;;;18.30;5.40;;;;;;;5.37;87.94;100697.94;52207;1298;1020515;-81
2022/10/26 06:03:37;;;;;;;20.40;6.60;;;;;;;5.36;87.80;100699.54;52044;1309;1016083;-81
2022/10/26 06:06:12;;;;;;;20.30;6.90;;;;;;;5.35;87.89;100699.48;52100;1302;1016135;-81
2022/10/26 06:08:45;;;;;;;22.80;6.90;;;;;;;5.35;87.95;100698.70;52035;1302;1016566;-81
2022/10/26 06:11:17;;;;;;;20.80;6.90;;;;;;;5.35;88.02;100695.54;52159;1308;1016200;-81
2022/10/26 06:13:50;;;;;;;21.50;7.40;;;;;;;5.36;88.28;100699.30;52087;1310;1016045;-80
2022/10/26 06:16:36;;;;;;;24.10;7.30;;;;;;;5.37;88.46;100703.56;51847;1304;1016558;-80
2022/10/26 06:19:21;;;;;;;17.20;6.60;;;;;;;5.39;88.51;100705.56;51838;1310;1016422;-81
2022/10/26 06:22:08;;;;;;;21.20;5.80;;;;;;;5.41;88.70;100710.27;51977;1310;1015825;-80
2022/10/26 06:24:50;;;;;;;22.00;5.80;;;;;;;5.41;88.70;100713.48;51890;1309;1016098;-80
2022/10/26 06:27:28;;;;;;;19.00;5.70;;;;;;;5.42;88.83;100709.89;51804;1310;1015927;-80
2022/10/26 06:30:05;;;;;;;18.00;5.80;;;;;;;5.45;89.05;100708.36;51906;1310;1016385;-81
2022/10/26 06:32:37;;;;;;;20.40;5.90;;;;;;;5.47;89.04;100713.74;52153;1304;1015723;-81
2022/10/26 06:35:33;;;;;;;24.20;6.90;;;;;;;5.50;89.23;100714.14;52103;1311;1016562;-82
2022/10/26 06:38:08;;;;;;;19.90;6.50;;;;;;;5.54;89.99;100719.58;51937;1310;1016160;-81
2022/10/26 06:40:43;;;;;;;20.40;6.90;;;;;;;5.60;90.19;100724.73;52067;1311;1018302;-81
2022/10/26 06:43:23;;;;;;;17.40;6.10;;;;;;;5.65;90.29;100725.17;51970;1310;1016408;-81
2022/10/26 06:46:03;;;;;;;24.30;6.90;;;;;;;5.68;90.17;100727.84;52032;1310;1016223;-81
2022/10/26 06:48:46;;;;;;;21.90;7.10;;;;;;;5.73;90.29;100724.11;51920;1302;1015931;-81
2022/10/26 06:51:19;;;;;;;19.60;7.20;;;;;;;5.77;90.70;100723.52;52134;1310;1015943;-81
2022/10/26 06:53:57;;;;;;;21.20;7.60;;;;;;;5.84;90.87;100730.48;51968;1310;1015769;-81
2022/10/26 06:56:30;;;;;;;20.30;7.40;;;;;;;5.89;90.93;100730.27;51875;1309;1016572;-81
2022/10/26 06:59:08;;;;;;;18.50;7.10;;;;;;;5.97;91.18;100732.39;51788;1309;1016902;-81
2022/10/26 07:01:41;;;;;;;21.90;8.70;;;;;;;6.06;91.51;100735.21;51852;1302;1015744;-81
2022/10/26 07:04:13;;;;;;;25.50;9.70;;;;;;;6.14;91.64;100733.10;52151;1310;1016095;-81
2022/10/26 07:06:44;;;;;;;22.10;9.70;;;;;;;6.23;92.20;100739.05;52014;1310;1016323;-81
2022/10/26 07:09:15;;;;;;;22.10;9.10;;;;;;;6.31;92.39;100733.91;51948;1310;1015833;-81
2022/10/26 07:11:47;;;;;;;26.10;9.80;;;;;;;6.39;92.58;100731.85;52015;1308;1016293;-82
2022/10/26 07:14:18;;;;;;;26.40;10.60;;;;;;;6.47;92.84;100731.89;52049;1311;1016309;-81
2022/10/26 07:16:49;;;;;;;26.50;11.10;;;;;;;6.55;93.06;100731.87;51872;1310;1016048;-81
2022/10/26 07:19:21;;;;;;;26.90;11.30;;;;;;;6.64;93.14;100734.01;52052;1302;1016390;-81
2022/10/26 07:21:58;;;;;;;28.30;12.30;;;;;;;6.71;93.38;100736.10;52039;1310;1016142;-81
2022/10/26 07:24:29;;;;;;;24.40;11.20;;;;;;;6.81;93.72;100739.30;52048;1310;1016478;-81
2022/10/26 07:27:01;;;;;;;26.50;11.80;;;;;;;6.89;94.02;100736.21;52070;1309;1016586;-81
2022/10/26 07:29:34;;;;;;;31.60;11.10;;;;;;;6.97;94.24;100732.38;51996;1310;1018990;-81
2022/10/26 07:32:06;;;;;;;29.00;11.60;;;;;;;7.07;94.95;100731.68;52056;1310;1016505;-81
2022/10/26 07:34:37;;;;;;;31.20;12.30;;;;;;;7.15;94.89;100727.92;51986;1311;1016060;-81
2022/10/26 07:37:08;;;;;;;28.60;12.70;;;;;;;7.24;94.92;100727.58;51864;1310;1018337;-81
2022/10/26 07:39:40;;;;;;;26.40;11.20;;;;;;;7.32;94.81;100730.95;51877;1309;1020121;-81
2022/10/26 07:42:12;;;;;;;27.30;13.20;;;;;;;7.40;95.07;100731.29;52030;1309;1016325;-82
2022/10/26 07:44:46;;;;;;;28.20;12.70;;;;;;;7.49;95.41;100733.29;52036;1310;1016685;-81
2022/10/26 07:47:17;;;;;;;29.70;12.30;;;;;;;7.58;95.49;100733.73;51856;1310;1015870;-81
2022/10/26 07:49:49;;;;;;;22.60;11.50;;;;;;;7.66;95.70;100737.80;51962;1295;1016283;-81
2022/10/26 07:52:20;;;;;;;28.90;13.80;;;;;;;7.75;96.25;100740.20;51957;1310;1016535;-81
2022/10/26 07:54:51;;;;;;;30.30;13.70;;;;;;;7.87;96.61;100741.94;52105;1293;1016327;-81
2022/10/26 07:57:23;;;;;;;27.80;12.90;;;;;;;7.97;96.78;100742.16;51846;1310;1016547;-82
2022/10/26 07:59:54;;;;;;;27.10;12.80;;;;;;;8.04;96.56;100740.63;51833;1294;1016080;-81
2022/10/26 08:02:27;;;;;;;33.50;14.60;;;;;;;8.11;96.65;100740.39;51977;1310;1016940;-81
2022/10/26 08:05:00;;;;;;;30.90;13.50;;;;;;;8.21;97.21;100738.70;51933;1310;1016016;-81
2022/10/26 08:07:31;;;;;;;31.70;13.00;;;;;;;8.33;97.92;100740.84;51871;1310;1016273;-81
2022/10/26 08:10:03;;;;;;;40.10;14.50;;;;;;;8.45;97.90;100740.44;51826;1310;1015895;-81
2022/10/26 08:12:34;;;;;;;32.30;14.40;;;;;;;8.54;98.04;100741.50;51922;1310;1016462;-81
2022/10/26 08:15:07;;;;;;;29.30;14.60;;;;;;;8.64;98.05;100743.05;51780;1280;1016580;-81
2022/10/26 08:17:38;;;;;;;28.40;13.10;;;;;;;8.75;98.28;100739.62;51937;1302;1015843;-81
2022/10/26 08:20:12;;;;;;;29.00;15.80;;;;;;;8.87;98.82;100741.55;51746;1310;1020054;-82
2022/10/26 08:22:43;;;;;;;37.00;16.70;;;;;;;9.00;98.86;100743.66;51940;1310;1018081;-81
2022/10/26 08:25:14;;;;;;;31.70;15.60;;;;;;;9.09;98.66;100738.33;51743;1310;1015807;-81
2022/10/26 08:27:45;;;;;;;32.60;13.90;;;;;;;9.16;98.39;100737.49;51735;1309;1016090;-80
2022/10/26 08:30:17;;;;;;;31.10;14.00;;;;;;;9.26;98.79;100739.02;51927;1310;1016180;-80
2022/10/26 08:32:48;;;;;;;29.40;14.70;;;;;;;9.33;98.38;100740.39;51760;1302;1015993;-81
2022/10/26 08:35:20;;;;;;;28.90;13.50;;;;;;;9.40;98.65;100740.75;51955;1310;1016149;-82
2022/10/26 08:37:52;;;;;;;27.90;12.70;;;;;;;9.51;98.85;100736.95;51899;1310;1016559;-81
2022/10/26 08:40:29;;;;;;;24.50;12.20;;;;;;;9.59;98.73;100738.70;51883;1310;1016092;-81
2022/10/26 08:43:05;;;;;;;27.30;11.80;;;;;;;9.69;98.86;100739.98;51841;1303;1016305;-82
2022/10/26 08:45:40;;;;;;;24.50;11.90;;;;;;;9.76;98.83;100739.89;51668;1310;1016443;-82
2022/10/26 08:48:18;;;;;;;24.90;13.20;;;;;;;9.86;98.96;100744.80;51860;1302;1016501;-82
2022/10/26 08:50:55;;;;;;;22.80;11.00;;;;;;;9.95;98.97;100739.19;51694;1310;1015969;-81
2022/10/26 08:53:34;;;;;;;22.50;11.00;;;;;;;10.05;99.07;100738.70;51947;1304;1016297;-81
2022/10/26 08:56:12;;;;;;;24.40;10.90;;;;;;;10.15;99.34;100739.79;51760;1310;1016329;-82
2022/10/26 08:58:51;;;;;;;24.50;10.40;;;;;;;10.30;99.56;100735.95;51834;1310;1016095;-82
2022/10/26 09:01:23;;;;;;;22.50;10.10;;;;;;;10.38;99.09;100737.00;51930;1280;1016480;-81
2022/10/26 09:03:56;;;;;;;22.00;9.80;;;;;;;10.44;98.83;100739.60;51896;1309;1016216;-82
2022/10/26 09:06:35;;;;;;;21.40;9.20;;;;;;;10.49;98.97;100742.89;51689;1310;1015951;-82
2022/10/26 09:09:15;;;;;;;21.10;8.30;;;;;;;10.60;99.63;100742.57;51732;1310;1016148;-82
2022/10/26 09:12:03;;;;;;;21.60;8.20;;;;;;;10.75;99.85;100742.20;51549;1310;1016124;-82
2022/10/26 09:14:47;;;;;;;19.50;7.80;;;;;;;10.95;99.60;100744.73;51880;1310;1016108;-82
2022/10/26 09:17:28;;;;;;;18.30;7.40;;;;;;;11.04;99.42;100743.16;51578;1310;1016626;-82
2022/10/26 09:20:25;;;;;;;21.00;7.60;;;;;;;11.17;99.11;100744.89;51862;1309;1016129;-82
2022/10/26 09:23:07;;;;;;;22.70;7.20;;;;;;;11.26;99.03;100746.60;51927;1310;1016275;-83
2022/10/26 09:25:42;;;;;;;22.40;7.80;;;;;;;11.36;99.07;100746.22;51674;1310;1015906;-82
2022/10/26 09:28:17;;;;;;;21.30;7.80;;;;;;;11.50;98.87;100748.42;51831;1311;1016115;-83
2022/10/26 09:30:49;;;;;;;22.10;7.20;;;;;;;11.64;98.64;100750.38;51644;1309;1015694;-82
2022/10/26 09:33:25;;;;;;;21.50;8.00;;;;;;;11.73;98.40;100755.95;51847;1303;1015934;-82
2022/10/26 09:36:00;;;;;;;17.30;7.10;;;;;;;11.83;98.45;100755.59;51579;1310;1016563;-81
2022/10/26 09:38:35;;;;;;;18.30;6.90;;;;;;;11.97;98.16;100754.50;51879;1310;1016433;-82
2022/10/26 09:41:13;;;;;;;17.90;7.20;;;;;;;12.06;97.78;100756.48;51550;1311;1016585;-82
2022/10/26 09:43:53;;;;;;;19.60;7.00;;;;;;;12.19;97.55;100757.61;51596;1311;1016222;-81
2022/10/26 09:46:32;;;;;;;19.90;7.30;;;;;;;12.31;97.33;100756.02;51734;1311;1016189;-82
2022/10/26 09:49:10;;;;;;;19.80;6.50;;;;;;;12.46;97.15;100758.41;51818;1310;1016472;-81
2022/10/26 09:51:45;;;;;;;18.80;6.60;;;;;;;12.59;96.90;100757.19;51611;1303;1016128;-82
2022/10/26 09:54:19;;;;;;;20.00;6.80;;;;;;;12.66;96.60;100758.49;51821;1280;1016066;-82
2022/10/26 09:56:55;;;;;;;11.60;4.30;;;;;;;12.76;96.74;100763.57;51619;1302;1016179;-82
2022/10/26 09:59:28;;;;;;;13.10;4.20;;;;;;;12.85;96.30;100757.52;51575;1303;1015527;-82
2022/10/26 10:01:59;;;;;;;15.80;4.60;;;;;;;12.95;96.37;100761.01;51609;1310;1016262;-82
2022/10/26 10:04:33;;;;;;;18.00;6.50;;;;;;;13.06;96.37;100760.41;51577;1310;1016129;-82
2022/10/26 10:07:18;;;;;;;11.90;5.40;;;;;;;13.14;95.92;100759.52;51617;1311;1016488;-82
2022/10/26 10:10:08;;;;;;;17.00;5.50;;;;;;;13.24;95.89;100760.66;51618;1310;1016303;-82
2022/10/26 10:12:39;;;;;;;15.90;4.80;;;;;;;13.34;95.66;100762.05;51596;1311;1016190;-82
2022/10/26 10:15:20;;;;;;;10.60;3.30;;;;;;;13.43;95.53;100760.62;51813;1311;1016381;-82
2022/10/26 10:17:54;;;;;;;11.40;3.30;;;;;;;13.55;95.24;100757.84;51580;1302;1016526;-82
2022/10/26 10:20:30;;;;;;;11.70;2.10;;;;;;;13.64;94.83;100757.22;51846;1310;1016337;-82
2022/10/26 10:23:03;;;;;;;14.00;1.50;;;;;;;13.75;94.42;100757.56;51563;1296;1016302;-81
2022/10/26 10:25:37;;;;;;;9.40;1.40;;;;;;;13.84;94.11;100755.05;51803;1310;1015747;-82
2022/10/26 10:28:22;;;;;;;4.90;1.40;;;;;;;13.93;93.91;100752.77;51577;1311;1018482;-82
2022/10/26 10:31:00;;;;;;;6.00;1.30;;;;;;;13.98;93.77;100752.27;51591;1310;1016467;-82
2022/10/26 10:33:41;;;;;;;6.80;1.40;;;;;;;14.02;93.54;100751.67;51625;1310;1015969;-82
2022/10/26 10:36:18;;;;;;;5.20;1.00;;;;;;;14.05;93.09;100753.02;51704;1310;1016104;-82
2022/10/26 10:38:51;;;;;;;9.50;1.30;;;;;;;14.15;93.10;100755.40;51880;1310;1016211;-82
2022/10/26 10:41:29;;;;;;;5.60;1.00;;;;;;;14.21;92.48;100757.77;51694;1294;1016620;-82
2022/10/26 10:44:09;;;;;;;6.00;1.10;;;;;;;14.27;91.99;100756.34;51614;1280;1015921;-82
2022/10/26 10:46:40;;;;;;;6.40;1.00;;;;;;;14.35;91.78;100756.10;51639;1310;1016924;-82
2022/10/26 10:49:23;;;;;;;8.50;1.20;;;;;;;14.42;91.60;100761.55;51845;1310;1016373;-82
2022/10/26 10:51:55;;;;;;;2.80;0.80;;;;;;;14.48;91.32;100760.08;51728;1287;1016905;-83
2022/10/26 10:54:31;;;;;;;6.80;1.10;;;;;;;14.55;91.06;100757.23;51610;1286;1016480;-82
2022/10/26 10:57:18;;;;;;;7.60;0.80;;;;;;;14.63;90.64;100757.23;51856;1310;1016582;-83
2022/10/26 11:00:00;;;;;;;5.30;1.10;;;;;;;14.69;90.07;100753.61;51595;1302;1016232;-82
2022/10/26 11:02:54;;;;;;;7.00;1.20;;;;;;;14.73;90.15;100754.62;51709;1310;1015818;-82
2022/10/26 11:05:46;;;;;;;6.50;0.80;;;;;;;14.83;89.75;100750.58;51787;1310;1015586;-81
2022/10/26 11:08:26;;;;;;;9.40;0.90;;;;;;;14.88;89.33;100753.20;51631;1317;1016211;-82
2022/10/26 11:11:03;;;;;;;6.30;0.90;;;;;;;14.94;89.07;100755.76;51539;1317;1016100;-82
2022/10/26 11:13:39;;;;;;;7.30;1.30;;;;;;;14.99;88.65;100758.98;51602;1317;1016154;-82
2022/10/26 11:16:16;;;;;;;5.70;0.80;;;;;;;15.03;88.25;100759.16;51655;1292;1016140;-81
2022/10/26 11:18:52;;;;;;;5.00;0.80;;;;;;;15.09;88.38;100758.85;51368;1312;1374538;-82
2022/10/26 11:21:29;;;;;;;4.10;0.80;;;;;;;15.12;87.90;100755.00;51489;1315;1016535;-83
2022/10/26 11:24:12;;;;;;;4.60;0.80;;;;;;;15.18;87.49;100757.40;51670;1309;1016507;-82
2022/10/26 11:26:51;;;;;;;10.20;0.90;;;;;;;15.21;87.42;100753.90;51523;1317;1016228;-83
2022/10/26 11:29:29;;;;;;;6.20;0.90;;;;;;;15.21;87.25;100750.88;51672;1316;1016274;-82
2022/10/26 11:32:06;;;;;;;4.60;0.90;;;;;;;15.23;86.85;100754.89;51737;1317;1016160;-82
2022/10/26 11:34:43;;;;;;;5.80;1.00;;;;;;;15.27;86.40;100753.17;51487;1317;1015905;-82
2022/10/26 11:37:19;;;;;;;8.90;1.00;;;;;;;15.34;86.06;100754.92;51657;1315;1016258;-82
2022/10/26 11:40:01;;;;;;;5.50;0.90;;;;;;;15.39;85.41;100756.65;51675;1317;1016356;-82
2022/10/26 11:42:41;;;;;;;6.60;1.00;;;;;;;15.45;85.59;100751.81;51673;1317;1016048;-82
2022/10/26 11:45:19;;;;;;;5.40;0.80;;;;;;;15.48;85.31;100753.73;51540;1286;1016457;-82